createdAt,value
2017-03-15T00:00:08.165Z,74432
2017-03-15T00:00:18.268Z,74431
2017-03-15T00:00:27.803Z,74432
2017-03-15T00:00:37.299Z,74436
2017-03-15T00:00:47.391Z,74438
2017-03-15T00:00:57.198Z,74432
2017-03-15T00:01:07.303Z,74429
2017-03-15T00:01:17.426Z,74432
2017-03-15T00:01:27.514Z,74439
2017-03-15T00:01:37.325Z,74434
2017-03-15T00:01:47.151Z,74433
2017-03-15T00:01:56.965Z,74431
2017-03-15T00:02:07.069Z,74437
2017-03-15T00:02:17.184Z,74433
2017-03-15T00:02:27.287Z,74436
2017-03-15T00:02:37.388Z,74431
2017-03-15T00:02:47.202Z,74432
2017-03-15T00:02:56.749Z,74431
2017-03-15T00:03:06.847Z,74428
2017-03-15T00:03:16.660Z,74427
2017-03-15T00:03:26.751Z,74430
2017-03-15T00:03:36.577Z,74433
2017-03-15T00:03:46.118Z,74427
2017-03-15T00:03:55.653Z,74432
2017-03-15T00:04:05.780Z,74430
2017-03-15T00:04:15.319Z,74428
2017-03-15T00:04:25.415Z,74430
2017-03-15T00:04:35.527Z,74438
2017-03-15T00:04:45.626Z,74432
2017-03-15T00:04:55.447Z,74439
2017-03-15T00:05:05.245Z,74432
2017-03-15T00:05:15.324Z,74433
2017-03-15T00:05:25.448Z,74423
2017-03-15T00:05:35.546Z,74432
2017-03-15T00:05:45.641Z,74432
2017-03-15T00:05:55.756Z,74430
2017-03-15T00:06:05.862Z,74436
2017-03-15T00:06:15.976Z,74433
2017-03-15T00:06:25.514Z,74431
2017-03-15T00:06:35.305Z,74429
2017-03-15T00:06:45.418Z,74422
2017-03-15T00:06:54.958Z,74423
2017-03-15T00:07:04.781Z,74418
2017-03-15T00:07:14.857Z,74418
2017-03-15T00:07:24.932Z,74420
2017-03-15T00:07:35.025Z,74418
2017-03-15T00:07:44.563Z,74425
2017-03-15T00:07:54.409Z,74429
2017-03-15T00:08:04.501Z,74429
2017-03-15T00:08:14.605Z,74426
2017-03-15T00:08:24.407Z,74424
2017-03-15T00:08:34.517Z,74430
2017-03-15T00:08:44.343Z,74427
2017-03-15T00:08:54.438Z,74435
2017-03-15T00:09:04.529Z,74430
2017-03-15T00:09:14.623Z,74432
2017-03-15T00:09:24.719Z,74429
2017-03-15T00:09:34.817Z,74432
2017-03-15T00:09:44.626Z,74431
2017-03-15T00:09:54.144Z,74432
2017-03-15T00:10:04.229Z,74434
2017-03-15T00:10:14.347Z,74428
2017-03-15T00:10:24.450Z,74425
2017-03-15T00:10:34.542Z,74429
2017-03-15T00:10:44.658Z,74427
2017-03-15T00:10:54.469Z,74430
2017-03-15T00:11:04.281Z,74425
2017-03-15T00:11:14.107Z,74424
2017-03-15T00:11:23.911Z,74423
2017-03-15T00:11:34.005Z,74427
2017-03-15T00:11:44.102Z,74422
2017-03-15T00:11:53.898Z,74422
2017-03-15T00:12:03.715Z,74419
2017-03-15T00:12:13.229Z,74419
2017-03-15T00:12:23.329Z,74416
2017-03-15T00:12:33.419Z,74416
2017-03-15T00:12:43.525Z,74417
2017-03-15T00:12:53.334Z,74419
2017-03-15T00:13:02.847Z,74416
2017-03-15T00:13:12.946Z,74417
2017-03-15T00:13:23.055Z,74424
2017-03-15T00:13:32.898Z,74425
2017-03-15T00:13:43.031Z,74424
2017-03-15T00:13:52.585Z,74418
2017-03-15T00:14:02.694Z,74426
2017-03-15T00:14:12.801Z,74423
2017-03-15T00:14:22.885Z,74426
2017-03-15T00:14:32.413Z,74428
2017-03-15T00:14:42.528Z,74424
2017-03-15T00:14:52.646Z,74423
2017-03-15T00:15:02.763Z,74418
2017-03-15T00:15:12.883Z,74418
2017-03-15T00:15:22.715Z,74421
2017-03-15T00:15:32.522Z,74421
2017-03-15T00:15:41.748Z,74424
2017-03-15T00:15:51.555Z,74418
2017-03-15T00:16:01.676Z,74412
2017-03-15T00:16:11.502Z,74413
2017-03-15T00:16:21.306Z,74421
2017-03-15T00:16:31.133Z,74412
2017-03-15T00:16:41.229Z,74412
2017-03-15T00:16:51.056Z,74413
2017-03-15T00:17:00.867Z,74413
2017-03-15T00:17:10.687Z,74414
2017-03-15T00:17:20.770Z,74414
2017-03-15T00:17:30.871Z,74411
2017-03-15T00:17:41.014Z,74410
2017-03-15T00:17:51.129Z,74412
2017-03-15T00:18:00.939Z,74409
2017-03-15T00:18:11.031Z,74407
2017-03-15T00:18:20.871Z,74411
2017-03-15T00:18:30.976Z,74412
2017-03-15T00:18:40.773Z,74404
2017-03-15T00:18:50.574Z,74403
2017-03-15T00:19:00.677Z,74400
2017-03-15T00:19:10.772Z,74387
2017-03-15T00:19:20.577Z,74394
2017-03-15T00:19:30.685Z,74393
2017-03-15T00:19:40.788Z,74396
2017-03-15T00:19:50.890Z,74394
2017-03-15T00:20:01.009Z,74400
2017-03-15T00:20:10.531Z,74401
2017-03-15T00:20:20.359Z,74402
2017-03-15T00:20:30.492Z,74405
2017-03-15T00:20:40.598Z,74402
2017-03-15T00:20:50.711Z,74408
2017-03-15T00:21:00.507Z,74397
2017-03-15T00:21:10.632Z,74401
2017-03-15T00:21:20.750Z,74399
2017-03-15T00:21:30.886Z,74401
2017-03-15T00:21:40.672Z,74399
2017-03-15T00:21:50.754Z,74403
2017-03-15T00:22:00.830Z,74393
2017-03-15T00:22:10.966Z,74395
2017-03-15T00:22:20.778Z,74401
2017-03-15T00:22:30.883Z,74406
2017-03-15T00:22:40.400Z,74409
2017-03-15T00:22:50.198Z,74406
2017-03-15T00:23:00.016Z,74403
2017-03-15T00:23:10.119Z,74406
2017-03-15T00:23:20.238Z,74400
2017-03-15T00:23:30.351Z,74403
2017-03-15T00:23:40.472Z,74405
2017-03-15T00:23:50.592Z,74396
2017-03-15T00:24:00.398Z,74403
2017-03-15T00:24:10.514Z,74405
2017-03-15T00:24:20.339Z,74411
2017-03-15T00:24:30.455Z,74408
2017-03-15T00:24:40.552Z,74405
2017-03-15T00:24:50.684Z,74415
2017-03-15T00:25:00.765Z,74410
2017-03-15T00:25:10.577Z,74410
2017-03-15T00:25:20.688Z,74412
2017-03-15T00:25:30.801Z,74406
2017-03-15T00:25:40.909Z,74409
2017-03-15T00:25:51.027Z,74399
2017-03-15T00:26:00.837Z,74399
2017-03-15T00:26:10.661Z,74394
2017-03-15T00:26:20.764Z,74395
2017-03-15T00:26:30.561Z,74412
2017-03-15T00:26:40.689Z,74407
2017-03-15T00:26:50.782Z,74404
2017-03-15T00:27:00.899Z,74403
2017-03-15T00:27:10.721Z,74402
2017-03-15T00:27:20.524Z,74402
2017-03-15T00:27:30.043Z,74400
2017-03-15T00:27:39.867Z,74399
2017-03-15T00:27:49.422Z,74403
2017-03-15T00:27:59.265Z,74403
2017-03-15T00:28:08.771Z,74403
2017-03-15T00:28:18.868Z,74400
2017-03-15T00:28:28.958Z,74407
2017-03-15T00:28:39.051Z,74405
2017-03-15T00:28:48.861Z,74403
2017-03-15T00:28:58.969Z,74407
2017-03-15T00:29:08.790Z,74403
2017-03-15T00:29:18.881Z,74403
2017-03-15T00:29:28.988Z,74401
2017-03-15T00:29:38.825Z,74405
2017-03-15T00:29:48.926Z,74394
2017-03-15T00:29:58.735Z,74401
2017-03-15T00:30:08.551Z,74408
2017-03-15T00:30:18.372Z,74410
2017-03-15T00:30:28.469Z,74413
2017-03-15T00:30:38.293Z,74417
2017-03-15T00:30:48.405Z,74418
2017-03-15T00:30:58.217Z,74418
2017-03-15T00:31:08.316Z,74411
2017-03-15T00:31:18.403Z,74417
2017-03-15T00:31:28.505Z,74415
2017-03-15T00:31:38.612Z,74415
2017-03-15T00:31:48.721Z,74415
2017-03-15T00:31:58.828Z,74411
2017-03-15T00:32:08.920Z,74411
2017-03-15T00:32:19.036Z,74417
2017-03-15T00:32:29.144Z,74415
2017-03-15T00:32:39.251Z,74406
2017-03-15T00:32:49.095Z,74410
2017-03-15T00:32:59.183Z,74411
2017-03-15T00:33:09.286Z,74409
2017-03-15T00:33:19.107Z,74405
2017-03-15T00:33:29.201Z,74409
2017-03-15T00:33:39.297Z,74410
2017-03-15T00:33:49.425Z,74407
2017-03-15T00:33:59.554Z,74407
2017-03-15T00:34:09.086Z,74411
2017-03-15T00:34:19.170Z,74412
2017-03-15T00:34:29.268Z,74411
2017-03-15T00:34:39.091Z,74416
2017-03-15T00:34:49.206Z,74416
2017-03-15T00:34:59.297Z,74419
2017-03-15T00:35:09.093Z,74420
2017-03-15T00:35:19.174Z,74418
2017-03-15T00:35:28.976Z,74420
2017-03-15T00:35:39.089Z,74417
2017-03-15T00:35:48.630Z,74416
2017-03-15T00:35:58.721Z,74414
2017-03-15T00:36:08.823Z,74420
2017-03-15T00:36:18.931Z,74413
2017-03-15T00:36:28.730Z,74410
2017-03-15T00:36:38.833Z,74410
2017-03-15T00:36:48.642Z,74410
2017-03-15T00:36:58.749Z,74410
2017-03-15T00:37:08.537Z,74409
2017-03-15T00:37:18.065Z,74407
2017-03-15T00:37:27.599Z,74411
2017-03-15T00:37:37.406Z,74409
2017-03-15T00:37:47.509Z,74409
2017-03-15T00:37:57.321Z,74407
2017-03-15T00:38:07.132Z,74410
2017-03-15T00:38:17.228Z,74407
2017-03-15T00:38:27.355Z,74409
2017-03-15T00:38:36.887Z,74409
2017-03-15T00:38:46.426Z,74408
2017-03-15T00:38:56.244Z,74401
2017-03-15T00:39:06.372Z,74408
2017-03-15T00:39:16.458Z,74408
2017-03-15T00:39:26.573Z,74407
2017-03-15T00:39:36.387Z,74410
2017-03-15T00:39:46.499Z,74413
2017-03-15T00:39:56.607Z,74413
2017-03-15T00:40:06.709Z,74405
2017-03-15T00:40:16.218Z,74408
2017-03-15T00:40:26.293Z,74414
2017-03-15T00:40:36.402Z,74411
2017-03-15T00:40:46.501Z,74408
2017-03-15T00:40:56.613Z,74413
2017-03-15T00:41:06.727Z,74409
2017-03-15T00:41:16.263Z,74410
2017-03-15T00:41:25.808Z,74410
2017-03-15T00:41:35.931Z,74409
2017-03-15T00:41:45.764Z,74410
2017-03-15T00:41:55.885Z,74410
2017-03-15T00:42:05.714Z,74412
2017-03-15T00:42:15.531Z,74416
2017-03-15T00:42:25.642Z,74415
2017-03-15T00:42:35.750Z,74411
2017-03-15T00:42:45.843Z,74406
2017-03-15T00:42:55.655Z,74408
2017-03-15T00:43:05.770Z,74410
2017-03-15T00:43:15.582Z,74413
2017-03-15T00:43:25.681Z,74413
2017-03-15T00:43:35.770Z,74412
2017-03-15T00:43:45.893Z,74408
2017-03-15T00:43:56.023Z,74413
2017-03-15T00:44:05.855Z,74410
2017-03-15T00:44:15.649Z,74411
2017-03-15T00:44:25.781Z,74404
2017-03-15T00:44:35.886Z,74407
2017-03-15T00:44:45.981Z,74404
2017-03-15T00:44:55.805Z,74410
2017-03-15T00:45:05.629Z,74407
2017-03-15T00:45:15.152Z,74407
2017-03-15T00:45:25.276Z,74406
2017-03-15T00:45:35.102Z,74404
2017-03-15T00:45:44.624Z,74406
2017-03-15T00:45:54.739Z,74405
2017-03-15T00:46:04.550Z,74404
2017-03-15T00:46:14.659Z,74401
2017-03-15T00:46:24.192Z,74399
2017-03-15T00:46:34.276Z,74402
2017-03-15T00:46:44.103Z,74404
2017-03-15T00:46:53.957Z,74411
2017-03-15T00:47:04.067Z,74411
2017-03-15T00:47:14.166Z,74404
2017-03-15T00:47:23.992Z,74409
2017-03-15T00:47:33.842Z,74407
2017-03-15T00:47:43.976Z,74406
2017-03-15T00:47:54.065Z,74404
2017-03-15T00:48:04.175Z,74406
2017-03-15T00:48:14.274Z,74402
2017-03-15T00:48:24.388Z,74401
2017-03-15T00:48:34.196Z,74401
2017-03-15T00:48:44.282Z,74400
2017-03-15T00:48:54.087Z,74402
2017-03-15T00:49:04.192Z,74401
2017-03-15T00:49:14.021Z,74403
2017-03-15T00:49:23.835Z,74402
2017-03-15T00:49:33.949Z,74401
2017-03-15T00:49:43.763Z,74400
2017-03-15T00:49:53.881Z,74397
2017-03-15T00:50:04.003Z,74398
2017-03-15T00:50:13.547Z,74407
2017-03-15T00:50:23.667Z,74405
2017-03-15T00:50:33.760Z,74404
2017-03-15T00:50:43.884Z,74403
2017-03-15T00:50:53.999Z,74405
2017-03-15T00:51:04.119Z,74405
2017-03-15T00:51:14.215Z,74398
2017-03-15T00:51:24.311Z,74396
2017-03-15T00:51:34.126Z,74396
2017-03-15T00:51:43.956Z,74395
2017-03-15T00:51:54.062Z,74405
2017-03-15T00:52:04.185Z,74409
2017-03-15T00:52:13.981Z,74412
2017-03-15T00:52:24.087Z,74402
2017-03-15T00:52:34.208Z,74405
2017-03-15T00:52:44.007Z,74403
2017-03-15T00:52:54.124Z,74407
2017-03-15T00:53:04.240Z,74406
2017-03-15T00:53:14.348Z,74405
2017-03-15T00:53:23.870Z,74409
2017-03-15T00:53:33.979Z,74411
2017-03-15T00:53:43.794Z,74408
2017-03-15T00:53:53.915Z,74410
2017-03-15T00:54:04.034Z,74410
2017-03-15T00:54:14.142Z,74410
2017-03-15T00:54:24.248Z,74409
2017-03-15T00:54:34.079Z,74409
2017-03-15T00:54:44.201Z,74410
2017-03-15T00:54:54.306Z,74407
2017-03-15T00:55:04.386Z,74414
2017-03-15T00:55:14.474Z,74411
2017-03-15T00:55:24.295Z,74409
2017-03-15T00:55:34.098Z,74413
2017-03-15T00:55:43.915Z,74408
2017-03-15T00:55:54.036Z,74403
2017-03-15T00:56:02.988Z,74403
2017-03-15T00:56:13.086Z,74409
2017-03-15T00:56:23.180Z,74409
2017-03-15T00:56:32.400Z,74408
2017-03-15T00:56:41.922Z,74408
2017-03-15T00:56:51.736Z,74408
2017-03-15T00:57:01.824Z,74405
2017-03-15T00:57:11.928Z,74404
2017-03-15T00:57:21.750Z,74407
2017-03-15T00:57:31.537Z,74411
2017-03-15T00:57:41.632Z,74409
2017-03-15T00:57:51.162Z,74406
2017-03-15T00:58:00.963Z,74408
2017-03-15T00:58:10.769Z,74406
2017-03-15T00:58:20.849Z,74407
2017-03-15T00:58:30.938Z,74411
2017-03-15T00:58:40.733Z,74414
2017-03-15T00:58:50.551Z,74410
2017-03-15T00:59:00.650Z,74408
2017-03-15T00:59:10.738Z,74406
2017-03-15T00:59:20.548Z,74405
2017-03-15T00:59:30.374Z,74404
2017-03-15T00:59:40.477Z,74405
2017-03-15T00:59:50.266Z,74407
2017-03-15T00:59:59.794Z,74410
2017-03-15T01:00:09.903Z,74401
2017-03-15T01:00:20.002Z,74404
2017-03-15T01:00:30.101Z,74409
2017-03-15T01:00:39.927Z,74411
2017-03-15T01:00:50.041Z,74408
2017-03-15T01:00:59.564Z,74405
2017-03-15T01:01:09.360Z,74406
2017-03-15T01:01:19.458Z,74406
2017-03-15T01:01:29.554Z,74411
2017-03-15T01:01:39.386Z,74412
2017-03-15T01:01:49.491Z,74402
2017-03-15T01:01:59.607Z,74413
2017-03-15T01:02:09.152Z,74418
2017-03-15T01:02:19.000Z,74411
2017-03-15T01:02:29.118Z,74409
2017-03-15T01:02:38.919Z,74410
2017-03-15T01:02:49.023Z,74410
2017-03-15T01:02:58.897Z,74411
2017-03-15T01:03:09.037Z,74412
2017-03-15T01:03:19.128Z,74409
2017-03-15T01:03:29.237Z,74410
2017-03-15T01:03:39.042Z,74411
2017-03-15T01:03:48.845Z,74408
2017-03-15T01:03:58.952Z,74412
2017-03-15T01:04:09.040Z,74412
2017-03-15T01:04:19.170Z,74406
2017-03-15T01:04:29.271Z,74402
2017-03-15T01:04:39.390Z,74405
2017-03-15T01:04:49.183Z,74413
2017-03-15T01:04:59.280Z,74413
2017-03-15T01:05:09.384Z,74409
2017-03-15T01:05:19.496Z,74409
2017-03-15T01:05:29.306Z,74408
2017-03-15T01:05:39.131Z,74408
2017-03-15T01:05:48.683Z,74412
2017-03-15T01:05:58.509Z,74410
2017-03-15T01:06:08.317Z,74405
2017-03-15T01:06:17.862Z,74407
2017-03-15T01:06:27.964Z,74409
2017-03-15T01:06:37.484Z,74408
2017-03-15T01:06:47.016Z,74409
2017-03-15T01:06:57.136Z,74405
2017-03-15T01:07:06.942Z,74406
2017-03-15T01:07:17.076Z,74407
2017-03-15T01:07:27.169Z,74405
2017-03-15T01:07:36.970Z,74407
2017-03-15T01:07:46.541Z,74404
2017-03-15T01:07:56.342Z,74404
2017-03-15T01:08:05.872Z,74406
2017-03-15T01:08:15.677Z,74402
2017-03-15T01:08:25.768Z,74403
2017-03-15T01:08:35.571Z,74401
2017-03-15T01:08:45.683Z,74397
2017-03-15T01:08:55.792Z,74405
2017-03-15T01:09:05.904Z,74401
2017-03-15T01:09:15.996Z,74403
2017-03-15T01:09:25.797Z,74405
2017-03-15T01:09:35.892Z,74403
2017-03-15T01:09:46.006Z,74404
2017-03-15T01:09:56.120Z,74394
2017-03-15T01:10:05.953Z,74399
2017-03-15T01:10:15.197Z,74391
2017-03-15T01:10:25.303Z,74390
2017-03-15T01:10:35.378Z,74399
2017-03-15T01:10:45.452Z,74401
2017-03-15T01:10:55.537Z,74399
2017-03-15T01:11:05.652Z,74397
2017-03-15T01:11:15.459Z,74400
2017-03-15T01:11:25.574Z,74395
2017-03-15T01:11:35.684Z,74394
2017-03-15T01:11:45.525Z,74404
2017-03-15T01:11:55.043Z,74401
2017-03-15T01:12:04.850Z,74400
2017-03-15T01:12:14.662Z,74401
2017-03-15T01:12:24.469Z,74401
2017-03-15T01:12:34.591Z,74400
2017-03-15T01:12:44.394Z,74402
2017-03-15T01:12:54.217Z,74403
2017-03-15T01:13:04.314Z,74399
2017-03-15T01:13:14.123Z,74398
2017-03-15T01:13:24.248Z,74396
2017-03-15T01:13:34.356Z,74403
2017-03-15T01:13:44.165Z,74398
2017-03-15T01:13:53.984Z,74401
2017-03-15T01:14:04.083Z,74402
2017-03-15T01:14:14.194Z,74398
2017-03-15T01:14:24.022Z,74397
2017-03-15T01:14:34.129Z,74399
2017-03-15T01:14:44.247Z,74403
2017-03-15T01:14:54.054Z,74399
2017-03-15T01:15:04.187Z,74403
2017-03-15T01:15:14.285Z,74397
2017-03-15T01:15:24.369Z,74387
2017-03-15T01:15:34.174Z,74389
2017-03-15T01:15:44.008Z,74383
2017-03-15T01:15:53.546Z,74386
2017-03-15T01:16:03.346Z,74382
2017-03-15T01:16:12.868Z,74379
2017-03-15T01:16:22.945Z,74385
2017-03-15T01:16:33.043Z,74387
2017-03-15T01:16:42.860Z,74388
2017-03-15T01:16:52.949Z,74394
2017-03-15T01:17:03.055Z,74392
2017-03-15T01:17:13.160Z,74388
2017-03-15T01:17:23.263Z,74392
2017-03-15T01:17:33.094Z,74394
2017-03-15T01:17:43.204Z,74398
2017-03-15T01:17:53.002Z,74395
2017-03-15T01:18:03.090Z,74398
2017-03-15T01:18:13.190Z,74405
2017-03-15T01:18:23.018Z,74403
2017-03-15T01:18:33.131Z,74402
2017-03-15T01:18:43.236Z,74396
2017-03-15T01:18:53.336Z,74391
2017-03-15T01:19:03.443Z,74386
2017-03-15T01:19:13.258Z,74389
2017-03-15T01:19:23.367Z,74390
2017-03-15T01:19:33.197Z,74390
2017-03-15T01:19:43.284Z,74392
2017-03-15T01:19:52.827Z,74391
2017-03-15T01:20:02.372Z,74388
2017-03-15T01:20:12.188Z,74392
2017-03-15T01:20:22.284Z,74397
2017-03-15T01:20:31.792Z,74388
2017-03-15T01:20:41.602Z,74385
2017-03-15T01:20:51.132Z,74387
2017-03-15T01:21:01.234Z,74385
2017-03-15T01:21:11.362Z,74388
2017-03-15T01:21:21.469Z,74383
2017-03-15T01:21:31.301Z,74386
2017-03-15T01:21:41.409Z,74390
2017-03-15T01:21:51.222Z,74383
2017-03-15T01:22:01.360Z,74388
2017-03-15T01:22:10.883Z,74385
2017-03-15T01:22:20.980Z,74387
2017-03-15T01:22:31.087Z,74382
2017-03-15T01:22:41.195Z,74382
2017-03-15T01:22:51.296Z,74383
2017-03-15T01:23:01.102Z,74382
2017-03-15T01:23:10.943Z,74389
2017-03-15T01:23:21.044Z,74385
2017-03-15T01:23:31.142Z,74378
2017-03-15T01:23:40.995Z,74381
2017-03-15T01:23:51.088Z,74375
2017-03-15T01:24:01.199Z,74384
2017-03-15T01:24:11.008Z,74387
2017-03-15T01:24:21.094Z,74384
2017-03-15T01:24:31.188Z,74392
2017-03-15T01:24:41.283Z,74396
2017-03-15T01:24:51.115Z,74390
2017-03-15T01:25:01.223Z,74395
2017-03-15T01:25:11.322Z,74381
2017-03-15T01:25:21.394Z,74383
2017-03-15T01:25:31.185Z,74381
2017-03-15T01:25:41.317Z,74377
2017-03-15T01:25:51.130Z,74382
2017-03-15T01:26:00.965Z,74382
2017-03-15T01:26:10.789Z,74388
2017-03-15T01:26:20.611Z,74386
2017-03-15T01:26:30.418Z,74381
2017-03-15T01:26:40.535Z,74382
2017-03-15T01:26:50.339Z,74381
2017-03-15T01:27:00.438Z,74379
2017-03-15T01:27:10.543Z,74379
2017-03-15T01:27:20.357Z,74378
2017-03-15T01:27:29.892Z,74380
2017-03-15T01:27:40.003Z,74385
2017-03-15T01:27:49.815Z,74391
2017-03-15T01:27:59.630Z,74392
2017-03-15T01:28:09.735Z,74398
2017-03-15T01:28:19.567Z,74402
2017-03-15T01:28:29.646Z,74391
2017-03-15T01:28:39.461Z,74388
2017-03-15T01:28:49.589Z,74380
2017-03-15T01:28:59.700Z,74380
2017-03-15T01:29:09.514Z,74380
2017-03-15T01:29:19.611Z,74370
2017-03-15T01:29:29.728Z,74365
2017-03-15T01:29:39.825Z,74371
2017-03-15T01:29:49.647Z,74372
2017-03-15T01:29:59.746Z,74366
2017-03-15T01:30:09.260Z,74369
2017-03-15T01:30:19.364Z,74369
2017-03-15T01:30:28.895Z,74370
2017-03-15T01:30:38.983Z,74370
2017-03-15T01:30:48.799Z,74369
2017-03-15T01:30:58.920Z,74370
2017-03-15T01:31:09.032Z,74369
2017-03-15T01:31:19.148Z,74375
2017-03-15T01:31:28.964Z,74375
2017-03-15T01:31:39.087Z,74379
2017-03-15T01:31:49.176Z,74379
2017-03-15T01:31:58.975Z,74380
2017-03-15T01:32:08.795Z,74376
2017-03-15T01:32:18.923Z,74380
2017-03-15T01:32:29.006Z,74367
2017-03-15T01:32:39.095Z,74372
2017-03-15T01:32:49.193Z,74378
2017-03-15T01:32:59.298Z,74378
2017-03-15T01:33:09.404Z,74373
2017-03-15T01:33:19.492Z,74372
2017-03-15T01:33:29.583Z,74364
2017-03-15T01:33:39.120Z,74371
2017-03-15T01:33:49.210Z,74366
2017-03-15T01:33:59.332Z,74363
2017-03-15T01:34:09.440Z,74365
2017-03-15T01:34:19.552Z,74362
2017-03-15T01:34:29.662Z,74364
2017-03-15T01:34:39.466Z,74359
2017-03-15T01:34:49.290Z,74358
2017-03-15T01:34:59.127Z,74363
2017-03-15T01:35:08.941Z,74359
2017-03-15T01:35:18.773Z,74353
2017-03-15T01:35:28.001Z,74355
2017-03-15T01:35:37.844Z,74363
2017-03-15T01:35:47.660Z,74359
2017-03-15T01:35:57.748Z,74367
2017-03-15T01:36:07.605Z,74364
2017-03-15T01:36:17.422Z,74358
2017-03-15T01:36:27.211Z,74355
2017-03-15T01:36:37.038Z,74364
2017-03-15T01:36:47.145Z,74364
2017-03-15T01:36:57.253Z,74358
2017-03-15T01:37:07.066Z,74355
2017-03-15T01:37:17.200Z,74356
2017-03-15T01:37:27.000Z,74361
2017-03-15T01:37:37.159Z,74357
2017-03-15T01:37:46.965Z,74362
2017-03-15T01:37:57.079Z,74355
2017-03-15T01:38:06.909Z,74353
2017-03-15T01:38:16.994Z,74366
2017-03-15T01:38:27.118Z,74363
2017-03-15T01:38:36.927Z,74362
2017-03-15T01:38:46.738Z,74358
2017-03-15T01:38:56.558Z,74355
2017-03-15T01:39:06.641Z,74352
2017-03-15T01:39:16.727Z,74353
2017-03-15T01:39:26.833Z,74358
2017-03-15T01:39:36.938Z,74348
2017-03-15T01:39:46.770Z,74361
2017-03-15T01:39:56.609Z,74361
2017-03-15T01:40:06.429Z,74355
2017-03-15T01:40:16.248Z,74348
2017-03-15T01:40:26.360Z,74346
2017-03-15T01:40:36.483Z,74346
2017-03-15T01:40:46.591Z,74344
2017-03-15T01:40:56.679Z,74344
2017-03-15T01:41:06.764Z,74351
2017-03-15T01:41:16.566Z,74354
2017-03-15T01:41:26.654Z,74358
2017-03-15T01:41:36.790Z,74355
2017-03-15T01:41:46.900Z,74355
2017-03-15T01:41:56.731Z,74357
2017-03-15T01:42:06.836Z,74357
2017-03-15T01:42:16.650Z,74358
2017-03-15T01:42:26.175Z,74351
2017-03-15T01:42:36.281Z,74356
2017-03-15T01:42:46.389Z,74362
2017-03-15T01:42:56.496Z,74352
2017-03-15T01:43:06.594Z,74353
2017-03-15T01:43:16.701Z,74339
2017-03-15T01:43:26.498Z,74345
2017-03-15T01:43:36.321Z,74339
2017-03-15T01:43:46.144Z,74343
2017-03-15T01:43:55.379Z,74344
2017-03-15T01:44:05.488Z,74351
2017-03-15T01:44:15.596Z,74344
2017-03-15T01:44:25.713Z,74344
2017-03-15T01:44:35.841Z,74349
2017-03-15T01:44:45.954Z,74345
2017-03-15T01:44:56.059Z,74345
2017-03-15T01:45:05.596Z,74350
2017-03-15T01:45:15.416Z,74351
2017-03-15T01:45:25.505Z,74350
2017-03-15T01:45:35.615Z,74352
2017-03-15T01:45:45.724Z,74346
2017-03-15T01:45:55.826Z,74357
2017-03-15T01:46:05.897Z,74357
2017-03-15T01:46:15.717Z,74357
2017-03-15T01:46:25.576Z,74360
2017-03-15T01:46:35.425Z,74350
2017-03-15T01:46:45.527Z,74355
2017-03-15T01:46:55.662Z,74344
2017-03-15T01:47:05.748Z,74336
2017-03-15T01:47:15.855Z,74331
2017-03-15T01:47:25.949Z,74343
2017-03-15T01:47:35.197Z,74339
2017-03-15T01:47:45.023Z,74330
2017-03-15T01:47:55.117Z,74329
2017-03-15T01:48:04.931Z,74342
2017-03-15T01:48:15.036Z,74347
2017-03-15T01:48:24.864Z,74346
2017-03-15T01:48:34.963Z,74353
2017-03-15T01:48:44.493Z,74347
2017-03-15T01:48:54.327Z,74351
2017-03-15T01:49:04.144Z,74353
2017-03-15T01:49:14.243Z,74358
2017-03-15T01:49:24.076Z,74358
2017-03-15T01:49:34.227Z,74362
2017-03-15T01:49:44.322Z,74367
2017-03-15T01:49:54.412Z,74365
2017-03-15T01:50:04.518Z,74364
2017-03-15T01:50:14.355Z,74364
2017-03-15T01:50:24.189Z,74363
2017-03-15T01:50:33.996Z,74361
2017-03-15T01:50:43.816Z,74356
2017-03-15T01:50:53.635Z,74364
2017-03-15T01:51:03.751Z,74354
2017-03-15T01:51:13.274Z,74349
2017-03-15T01:51:23.090Z,74354
2017-03-15T01:51:32.920Z,74363
2017-03-15T01:51:42.997Z,74355
2017-03-15T01:51:52.819Z,74359
2017-03-15T01:52:02.925Z,74355
2017-03-15T01:52:13.044Z,74366
2017-03-15T01:52:23.144Z,74371
2017-03-15T01:52:33.246Z,74367
2017-03-15T01:52:43.074Z,74367
2017-03-15T01:52:52.896Z,74363
2017-03-15T01:53:03.003Z,74373
2017-03-15T01:53:13.093Z,74372
2017-03-15T01:53:22.913Z,74373
2017-03-15T01:53:33.003Z,74370
2017-03-15T01:53:42.540Z,74377
2017-03-15T01:53:52.638Z,74374
2017-03-15T01:54:01.870Z,74374
2017-03-15T01:54:11.685Z,74372
2017-03-15T01:54:21.790Z,74369
2017-03-15T01:54:31.620Z,74371
2017-03-15T01:54:41.439Z,74370
2017-03-15T01:54:50.981Z,74371
2017-03-15T01:55:01.088Z,74363
2017-03-15T01:55:10.904Z,74363
2017-03-15T01:55:21.017Z,74361
2017-03-15T01:55:30.562Z,74360
2017-03-15T01:55:40.365Z,74362
2017-03-15T01:55:50.481Z,74357
2017-03-15T01:56:00.571Z,74354
2017-03-15T01:56:10.114Z,74351
2017-03-15T01:56:19.916Z,74354
2017-03-15T01:56:29.739Z,74358
2017-03-15T01:56:39.570Z,74355
2017-03-15T01:56:49.699Z,74354
2017-03-15T01:56:59.785Z,74357
2017-03-15T01:57:09.889Z,74352
2017-03-15T01:57:19.698Z,74356
2017-03-15T01:57:29.505Z,74358
2017-03-15T01:57:39.332Z,74351
2017-03-15T01:57:49.142Z,74350
2017-03-15T01:57:59.240Z,74352
2017-03-15T01:58:09.343Z,74355
2017-03-15T01:58:19.448Z,74355
2017-03-15T01:58:28.697Z,74350
2017-03-15T01:58:38.807Z,74352
2017-03-15T01:58:48.337Z,74350
2017-03-15T01:58:57.863Z,74348
2017-03-15T01:59:07.996Z,74350
2017-03-15T01:59:18.109Z,74353
2017-03-15T01:59:28.205Z,74344
2017-03-15T01:59:38.283Z,74349
2017-03-15T01:59:48.405Z,74351
2017-03-15T01:59:58.235Z,74350
2017-03-15T02:00:08.045Z,74350
2017-03-15T02:00:18.135Z,74352
2017-03-15T02:00:28.251Z,74355
2017-03-15T02:00:38.062Z,74357
2017-03-15T02:00:48.172Z,74357
2017-03-15T02:00:57.718Z,74359
2017-03-15T02:01:07.817Z,74360
2017-03-15T02:01:17.631Z,74355
2017-03-15T02:01:27.755Z,74358
2017-03-15T02:01:37.564Z,74362
2017-03-15T02:01:47.688Z,74360
2017-03-15T02:01:57.801Z,74365
2017-03-15T02:02:07.934Z,74363
2017-03-15T02:02:18.057Z,74366
2017-03-15T02:02:28.152Z,74360
2017-03-15T02:02:37.997Z,74356
2017-03-15T02:02:48.099Z,74356
2017-03-15T02:02:58.226Z,74352
2017-03-15T02:03:08.332Z,74350
2017-03-15T02:03:18.143Z,74345
2017-03-15T02:03:28.268Z,74341
2017-03-15T02:03:38.345Z,74344
2017-03-15T02:03:48.432Z,74347
2017-03-15T02:03:58.551Z,74348
2017-03-15T02:04:08.362Z,74343
2017-03-15T02:04:18.178Z,74354
2017-03-15T02:04:28.024Z,74359
2017-03-15T02:04:38.130Z,74358
2017-03-15T02:04:48.243Z,74364
2017-03-15T02:04:58.067Z,74360
2017-03-15T02:05:07.887Z,74359
2017-03-15T02:05:17.713Z,74364
2017-03-15T02:05:27.243Z,74366
2017-03-15T02:05:37.099Z,74359
2017-03-15T02:05:46.893Z,74364
2017-03-15T02:05:56.728Z,74355
2017-03-15T02:06:06.786Z,74353
2017-03-15T02:06:16.619Z,74354
2017-03-15T02:06:26.143Z,74353
2017-03-15T02:06:35.665Z,74351
2017-03-15T02:06:45.776Z,74349
2017-03-15T02:06:55.895Z,74347
2017-03-15T02:07:05.988Z,74351
2017-03-15T02:07:15.807Z,74349
2017-03-15T02:07:25.925Z,74357
2017-03-15T02:07:36.041Z,74349
2017-03-15T02:07:46.169Z,74344
2017-03-15T02:07:56.266Z,74347
2017-03-15T02:08:06.077Z,74347